Hlavní strana
METAR-TAF:

METAR-TAF

Letiště :

Mezinárodní letiště Soči

Soči, Rusko

zeměpisná šířka: 43-26N, zeměpisná délka: 039-54E, výška: 16 m

Aktuální stav počasí

Zpráva byla vytvořena před 21 hodinami a 37 minutami, v 00:00 UTC
Východní vítr 6 kt, proměnlivý mezi východoseverovýchodním a jihovýchodním
Teplota 23°C
Vlhkost vzduchu 73%
Tlak 1011 hPa
Viditelnost 10 km a více

METAR: URSS 210000Z 09003MPS 060V130 9999 NSC 23/18 Q1011 R06/090070 R02/090070 NOSIG RMK R02/05004MPS QFE757

Čas: 00:37 (21:37 UTC)

Předpověď počasí

Zpráva byla vytvořena před 22 hodinami a 42 minutami, v 22:55 UTC
Předpověď platná od 21 v 00 UTC do 21 v 24 UTC
Severovýchodní vítr 12 kt
Viditelnost 10 km a více
Změna
od 21 v 05 UTC do 21 v 07 UTC
Jihozápadní vítr 10 kt s nárazy do 19 kt
Skoro jasno ve výšce 3000 ft
Změna
od 21 v 17 UTC do 21 v 18 UTC
Severovýchodní vítr 12 kt

TAF: URSS 202255Z 2100/2124 05006MPS 9999 NSC BECMG 2105/2107 23005G10MPS FEW030 BECMG 2117/2118 05006MPS NSC

Stav a předpovědi počasí z více než 4 000 letišť (zprávy METAR a TAF).

Červené a žluté tečky na mapě představují dostupné meteorologické stanice.

Když kurzor umístíte na tečku, zobrazí se název stanice.

Pak kliknutím zobrazíte stav a předpověď počasí.

Chcete-li změnit mapu, kliknutím na zelené tlačítko se znaménkem +mapu přiblížíte, kliknutím na zelené tlačítko se znaménkem – mapu oddálíte a kliknutím na zelené šipky přejdete na sousední mapy.


METAR-TAF: